sensor_id;sensor_type;location;lat;lon;timestamp;pressure;altitude;pressure_sealevel;temperature;humidity
27020;BME280;76819;49.098;11.826;2024-02-28T00:02:41;95980.81;;;9.33;60.46
27020;BME280;76819;49.098;11.826;2024-02-28T00:07:43;95977.38;;;9.33;60.18
27020;BME280;76819;49.098;11.826;2024-02-28T00:12:48;95993.00;;;9.34;60.00
27020;BME280;76819;49.098;11.826;2024-02-28T00:17:52;95989.72;;;9.32;60.07
27020;BME280;76819;49.098;11.826;2024-02-28T00:22:55;95989.75;;;9.26;60.06
27020;BME280;76819;49.098;11.826;2024-02-28T00:27:59;95991.19;;;9.22;60.06
27020;BME280;76819;49.098;11.826;2024-02-28T00:33:02;96003.94;;;9.12;60.33
27020;BME280;76819;49.098;11.826;2024-02-28T00:38:05;95994.63;;;9.02;60.27
27020;BME280;76819;49.098;11.826;2024-02-28T00:43:09;96001.13;;;8.87;60.90
27020;BME280;76819;49.098;11.826;2024-02-28T00:48:11;96001.31;;;8.85;60.74
27020;BME280;76819;49.098;11.826;2024-02-28T00:53:14;95996.22;;;8.84;60.96
27020;BME280;76819;49.098;11.826;2024-02-28T00:58:19;96001.91;;;8.87;60.92
27020;BME280;76819;49.098;11.826;2024-02-28T01:03:21;95999.50;;;8.92;61.00
27020;BME280;76819;49.098;11.826;2024-02-28T01:08:24;96014.88;;;9.02;60.73
27020;BME280;76819;49.098;11.826;2024-02-28T01:13:28;96014.47;;;9.05;60.83
27020;BME280;76819;49.098;11.826;2024-02-28T01:18:31;96013.84;;;9.03;60.92
27020;BME280;76819;49.098;11.826;2024-02-28T01:23:34;96015.69;;;9.09;60.94
27020;BME280;76819;49.098;11.826;2024-02-28T01:28:38;96013.84;;;9.16;60.87
27020;BME280;76819;49.098;11.826;2024-02-28T01:33:41;96025.59;;;9.20;60.83
27020;BME280;76819;49.098;11.826;2024-02-28T01:38:43;96022.38;;;9.12;61.02
27020;BME280;76819;49.098;11.826;2024-02-28T01:43:47;96020.56;;;9.12;61.05
27020;BME280;76819;49.098;11.826;2024-02-28T01:48:50;96024.38;;;9.16;61.20
27020;BME280;76819;49.098;11.826;2024-02-28T01:53:54;96021.34;;;9.19;61.39
27020;BME280;76819;49.098;11.826;2024-02-28T01:58:58;96035.72;;;9.10;61.67
27020;BME280;76819;49.098;11.826;2024-02-28T02:04:03;96046.66;;;9.07;61.75
27020;BME280;76819;49.098;11.826;2024-02-28T02:09:05;96046.66;;;9.07;61.97
27020;BME280;76819;49.098;11.826;2024-02-28T02:14:10;96059.41;;;9.10;61.86
27020;BME280;76819;49.098;11.826;2024-02-28T02:19:13;96082.09;;;9.11;61.81
27020;BME280;76819;49.098;11.826;2024-02-28T02:24:17;96091.81;;;9.04;62.42
27020;BME280;76819;49.098;11.826;2024-02-28T02:29:20;96109.66;;;9.15;62.12
27020;BME280;76819;49.098;11.826;2024-02-28T02:34:22;96123.25;;;9.25;61.65
27020;BME280;76819;49.098;11.826;2024-02-28T02:39:26;96123.84;;;9.21;61.71
27020;BME280;76819;49.098;11.826;2024-02-28T02:44:29;96122.22;;;9.26;61.43
27020;BME280;76819;49.098;11.826;2024-02-28T02:49:32;96127.47;;;9.26;61.48
27020;BME280;76819;49.098;11.826;2024-02-28T02:54:36;96119.81;;;9.31;61.50
27020;BME280;76819;49.098;11.826;2024-02-28T02:59:39;96121.41;;;9.39;61.26
27020;BME280;76819;49.098;11.826;2024-02-28T03:04:41;96114.53;;;9.44;61.19
27020;BME280;76819;49.098;11.826;2024-02-28T03:09:45;96129.94;;;9.34;61.64
27020;BME280;76819;49.098;11.826;2024-02-28T03:14:48;96130.50;;;9.23;61.65
27020;BME280;76819;49.098;11.826;2024-02-28T03:19:51;96131.75;;;9.27;61.43
27020;BME280;76819;49.098;11.826;2024-02-28T03:24:55;96133.56;;;9.33;61.57
27020;BME280;76819;49.098;11.826;2024-02-28T03:29:57;96133.97;;;9.30;61.28
27020;BME280;76819;49.098;11.826;2024-02-28T03:35:00;96133.53;;;9.14;61.85
27020;BME280;76819;49.098;11.826;2024-02-28T03:40:06;96143.88;;;9.15;61.92
27020;BME280;76819;49.098;11.826;2024-02-28T03:45:08;96146.50;;;9.15;61.85
27020;BME280;76819;49.098;11.826;2024-02-28T03:50:11;96152.97;;;9.19;62.06
27020;BME280;76819;49.098;11.826;2024-02-28T03:55:16;96161.50;;;9.21;62.38
27020;BME280;76819;49.098;11.826;2024-02-28T04:00:19;96165.16;;;9.20;62.02
27020;BME280;76819;49.098;11.826;2024-02-28T04:05:22;96172.03;;;9.15;62.46
27020;BME280;76819;49.098;11.826;2024-02-28T04:10:26;96168.38;;;9.22;62.36
27020;BME280;76819;49.098;11.826;2024-02-28T04:15:30;96165.16;;;9.20;62.23
27020;BME280;76819;49.098;11.826;2024-02-28T04:20:33;96159.06;;;9.20;61.79
27020;BME280;76819;49.098;11.826;2024-02-28T04:25:37;96159.25;;;9.05;62.07
27020;BME280;76819;49.098;11.826;2024-02-28T04:30:41;96164.69;;;8.97;62.03
27020;BME280;76819;49.098;11.826;2024-02-28T04:35:44;96173.38;;;8.91;62.09
27020;BME280;76819;49.098;11.826;2024-02-28T04:40:48;96167.09;;;8.92;62.13
27020;BME280;76819;49.098;11.826;2024-02-28T04:45:51;96166.09;;;8.93;62.19
27020;BME280;76819;49.098;11.826;2024-02-28T04:50:54;96173.56;;;8.83;62.71
27020;BME280;76819;49.098;11.826;2024-02-28T04:55:58;96178.44;;;8.86;62.59
27020;BME280;76819;49.098;11.826;2024-02-28T05:01:00;96166.31;;;8.98;62.26
27020;BME280;76819;49.098;11.826;2024-02-28T05:06:03;96170.97;;;8.96;62.21
27020;BME280;76819;49.098;11.826;2024-02-28T05:11:07;96177.19;;;8.82;62.37
27020;BME280;76819;49.098;11.826;2024-02-28T05:16:13;96183.84;;;8.78;62.43
27020;BME280;76819;49.098;11.826;2024-02-28T05:21:16;96199.88;;;8.83;62.40
27020;BME280;76819;49.098;11.826;2024-02-28T05:26:20;96201.72;;;8.89;62.03
27020;BME280;76819;49.098;11.826;2024-02-28T05:31:24;96204.56;;;8.94;62.06
27020;BME280;76819;49.098;11.826;2024-02-28T05:36:28;96211.50;;;9.08;61.78
27020;BME280;76819;49.098;11.826;2024-02-28T05:41:32;96223.06;;;9.20;61.53
27020;BME280;76819;49.098;11.826;2024-02-28T05:46:35;96233.63;;;9.27;61.52
27020;BME280;76819;49.098;11.826;2024-02-28T05:51:38;96234.25;;;9.35;61.39
27020;BME280;76819;49.098;11.826;2024-02-28T05:56:42;96248.66;;;9.46;60.99
27020;BME280;76819;49.098;11.826;2024-02-28T06:01:45;96257.97;;;9.48;60.86
27020;BME280;76819;49.098;11.826;2024-02-28T06:06:48;96262.03;;;9.51;60.48
27020;BME280;76819;49.098;11.826;2024-02-28T06:11:53;96279.88;;;9.49;60.44
27020;BME280;76819;49.098;11.826;2024-02-28T06:16:59;96295.47;;;9.44;60.10
27020;BME280;76819;49.098;11.826;2024-02-28T06:22:02;96302.94;;;9.40;60.42
27020;BME280;76819;49.098;11.826;2024-02-28T06:27:06;96319.56;;;9.41;60.46
27020;BME280;76819;49.098;11.826;2024-02-28T06:32:13;96336.78;;;9.43;60.41
27020;BME280;76819;49.098;11.826;2024-02-28T06:37:16;96337.78;;;9.42;60.38
27020;BME280;76819;49.098;11.826;2024-02-28T06:42:20;96331.75;;;9.48;60.32
27020;BME280;76819;49.098;11.826;2024-02-28T06:47:23;96340.66;;;9.54;60.13
27020;BME280;76819;49.098;11.826;2024-02-28T06:52:25;96354.88;;;9.53;59.82
27020;BME280;76819;49.098;11.826;2024-02-28T06:57:29;96353.44;;;9.50;60.09
27020;BME280;76819;49.098;11.826;2024-02-28T07:02:32;96357.72;;;9.58;60.10
27020;BME280;76819;49.098;11.826;2024-02-28T07:07:35;96367.28;;;9.66;59.83
27020;BME280;76819;49.098;11.826;2024-02-28T07:12:39;96378.03;;;9.77;59.93
27020;BME280;76819;49.098;11.826;2024-02-28T07:17:42;96374.81;;;9.82;59.51
27020;BME280;76819;49.098;11.826;2024-02-28T07:22:46;96374.19;;;9.80;59.36
27020;BME280;76819;49.098;11.826;2024-02-28T07:27:50;96363.06;;;9.84;59.33
27020;BME280;76819;49.098;11.826;2024-02-28T07:32:52;96363.91;;;9.98;59.27
27020;BME280;76819;49.098;11.826;2024-02-28T07:37:55;96373.84;;;10.02;59.20
27020;BME280;76819;49.098;11.826;2024-02-28T07:42:59;96377.72;;;10.06;59.35
27020;BME280;76819;49.098;11.826;2024-02-28T07:48:02;96382.81;;;10.08;58.81
27020;BME280;76819;49.098;11.826;2024-02-28T07:53:05;96381.16;;;10.07;58.97
27020;BME280;76819;49.098;11.826;2024-02-28T07:58:09;96386.63;;;10.12;59.08
27020;BME280;76819;49.098;11.826;2024-02-28T13:19:42;96544.00;;;7.65;71.30
27020;BME280;76819;49.098;11.826;2024-02-28T13:24:45;96534.13;;;8.68;67.96
27020;BME280;76819;49.098;11.826;2024-02-28T13:29:48;96534.75;;;9.40;65.39
27020;BME280;76819;49.098;11.826;2024-02-28T13:34:52;96529.69;;;9.80;64.06
27020;BME280;76819;49.098;11.826;2024-02-28T13:39:54;96533.91;;;10.08;62.70
27020;BME280;76819;49.098;11.826;2024-02-28T13:44:58;96523.66;;;10.20;61.28
27020;BME280;76819;49.098;11.826;2024-02-28T13:50:02;96527.94;;;10.34;60.64
27020;BME280;76819;49.098;11.826;2024-02-28T13:55:07;96535.06;;;10.40;59.96
27020;BME280;76819;49.098;11.826;2024-02-28T14:00:12;96533.25;;;10.41;59.24
27020;BME280;76819;49.098;11.826;2024-02-28T14:05:16;96531.25;;;10.49;59.27
27020;BME280;76819;49.098;11.826;2024-02-28T14:10:19;96524.97;;;10.63;58.94
27020;BME280;76819;49.098;11.826;2024-02-28T14:15:23;96531.72;;;10.79;58.33
27020;BME280;76819;49.098;11.826;2024-02-28T14:20:30;96524.00;;;10.78;58.00
27020;BME280;76819;49.098;11.826;2024-02-28T14:25:32;96530.50;;;10.82;57.97
27020;BME280;76819;49.098;11.826;2024-02-28T14:30:35;96530.50;;;10.88;57.94
27020;BME280;76819;49.098;11.826;2024-02-28T14:35:39;96530.50;;;10.88;57.48
27020;BME280;76819;49.098;11.826;2024-02-28T14:40:42;96539.66;;;10.92;57.39
27020;BME280;76819;49.098;11.826;2024-02-28T14:45:45;96539.66;;;10.99;57.00
27020;BME280;76819;49.098;11.826;2024-02-28T14:50:50;96541.91;;;11.08;57.14
27020;BME280;76819;49.098;11.826;2024-02-28T14:55:52;96542.31;;;11.12;57.09
27020;BME280;76819;49.098;11.826;2024-02-28T15:00:55;96544.75;;;11.13;56.95
27020;BME280;76819;49.098;11.826;2024-02-28T15:06:03;96547.78;;;11.17;56.78
27020;BME280;76819;49.098;11.826;2024-02-28T15:11:06;96549.84;;;11.15;56.37
27020;BME280;76819;49.098;11.826;2024-02-28T15:16:09;96547.78;;;11.10;56.55
27020;BME280;76819;49.098;11.826;2024-02-28T15:21:14;96544.13;;;11.05;56.56
27020;BME280;76819;49.098;11.826;2024-02-28T15:26:16;96536.63;;;11.08;56.45
27020;BME280;76819;49.098;11.826;2024-02-28T15:31:31;96537.84;;;11.12;56.34
27020;BME280;76819;49.098;11.826;2024-02-28T15:36:35;96533.38;;;11.13;56.15
27020;BME280;76819;49.098;11.826;2024-02-28T15:41:39;96536.22;;;11.18;56.02
27020;BME280;76819;49.098;11.826;2024-02-28T15:46:42;96521.19;;;11.25;56.01
27020;BME280;76819;49.098;11.826;2024-02-28T15:51:46;96529.72;;;11.27;56.11
27020;BME280;76819;49.098;11.826;2024-02-28T15:56:49;96527.06;;;11.27;55.79
27020;BME280;76819;49.098;11.826;2024-02-28T16:01:52;96528.88;;;11.20;55.94
27020;BME280;76819;49.098;11.826;2024-02-28T16:06:56;96531.34;;;11.15;55.45
27020;BME280;76819;49.098;11.826;2024-02-28T16:12:01;96531.75;;;11.12;55.66
27020;BME280;76819;49.098;11.826;2024-02-28T16:17:04;96530.53;;;11.08;55.40
27020;BME280;76819;49.098;11.826;2024-02-28T16:22:08;96534.59;;;11.04;55.60
27020;BME280;76819;49.098;11.826;2024-02-28T16:27:11;96536.22;;;11.05;55.85
27020;BME280;76819;49.098;11.826;2024-02-28T16:32:14;96531.75;;;11.05;55.67
27020;BME280;76819;49.098;11.826;2024-02-28T16:37:18;96541.06;;;11.01;55.24
27020;BME280;76819;49.098;11.826;2024-02-28T16:42:20;96554.09;;;11.03;55.63
27020;BME280;76819;49.098;11.826;2024-02-28T16:47:26;96547.81;;;11.04;55.43
27020;BME280;76819;49.098;11.826;2024-02-28T16:52:31;96557.56;;;11.03;55.31
27020;BME280;76819;49.098;11.826;2024-02-28T16:57:34;96562.63;;;11.05;55.37
27020;BME280;76819;49.098;11.826;2024-02-28T17:02:42;96567.91;;;11.05;55.21
27020;BME280;76819;49.098;11.826;2024-02-28T17:07:46;96563.44;;;10.99;55.60
27020;BME280;76819;49.098;11.826;2024-02-28T17:12:48;96571.94;;;11.01;55.26
27020;BME280;76819;49.098;11.826;2024-02-28T17:17:51;96575.41;;;11.01;55.61
27020;BME280;76819;49.098;11.826;2024-02-28T17:22:55;96586.19;;;11.00;55.22
27020;BME280;76819;49.098;11.826;2024-02-28T17:27:58;96582.31;;;11.02;55.22
27020;BME280;76819;49.098;11.826;2024-02-28T17:33:00;96585.78;;;11.03;55.51
27020;BME280;76819;49.098;11.826;2024-02-28T17:38:05;96588.19;;;10.98;55.51
27020;BME280;76819;49.098;11.826;2024-02-28T17:43:08;96602.59;;;10.89;55.46
27020;BME280;76819;49.098;11.826;2024-02-28T17:48:12;96600.50;;;10.58;55.68
27020;BME280;76819;49.098;11.826;2024-02-28T17:53:18;96605.50;;;10.40;56.46
27020;BME280;76819;49.098;11.826;2024-02-28T17:58:21;96597.78;;;10.38;57.01
27020;BME280;76819;49.098;11.826;2024-02-28T18:03:23;96608.31;;;10.32;57.24
27020;BME280;76819;49.098;11.826;2024-02-28T18:08:27;96606.53;;;10.45;57.23
27020;BME280;76819;49.098;11.826;2024-02-28T18:13:33;96612.03;;;10.50;57.04
27020;BME280;76819;49.098;11.826;2024-02-28T18:18:35;96609.78;;;10.47;56.79
27020;BME280;76819;49.098;11.826;2024-02-28T18:23:39;96600.06;;;10.54;56.27
27020;BME280;76819;49.098;11.826;2024-02-28T18:28:42;96610.44;;;10.62;56.26
27020;BME280;76819;49.098;11.826;2024-02-28T18:33:45;96603.75;;;10.67;56.38
27020;BME280;76819;49.098;11.826;2024-02-28T18:38:50;96609.69;;;10.69;56.64
27020;BME280;76819;49.098;11.826;2024-02-28T18:43:53;96611.28;;;10.70;56.72
27020;BME280;76819;49.098;11.826;2024-02-28T18:48:55;96610.69;;;10.68;56.54
27020;BME280;76819;49.098;11.826;2024-02-28T18:53:59;96606.00;;;10.70;56.34
27020;BME280;76819;49.098;11.826;2024-02-28T18:59:04;96604.00;;;10.72;56.22
27020;BME280;76819;49.098;11.826;2024-02-28T19:04:07;96600.31;;;10.73;56.67
27020;BME280;76819;49.098;11.826;2024-02-28T19:09:11;96607.25;;;10.74;56.74
27020;BME280;76819;49.098;11.826;2024-02-28T19:14:14;96600.56;;;10.78;56.82
27020;BME280;76819;49.098;11.826;2024-02-28T19:19:16;96596.88;;;10.79;56.46
27020;BME280;76819;49.098;11.826;2024-02-28T19:24:21;96604.78;;;10.72;56.32
27020;BME280;76819;49.098;11.826;2024-02-28T19:29:24;96607.66;;;10.71;56.70
27020;BME280;76819;49.098;11.826;2024-02-28T19:34:27;96605.81;;;10.65;56.79
27020;BME280;76819;49.098;11.826;2024-02-28T19:39:31;96604.16;;;10.63;56.44
27020;BME280;76819;49.098;11.826;2024-02-28T19:44:34;96606.00;;;10.70;56.11
27020;BME280;76819;49.098;11.826;2024-02-28T19:49:36;96604.16;;;10.63;55.90
27020;BME280;76819;49.098;11.826;2024-02-28T19:54:40;96599.28;;;10.60;55.75
27020;BME280;76819;49.098;11.826;2024-02-28T19:59:43;96605.16;;;10.49;56.22
27020;BME280;76819;49.098;11.826;2024-02-28T20:04:45;96609.00;;;10.53;56.51
27020;BME280;76819;49.098;11.826;2024-02-28T20:09:50;96602.31;;;10.57;56.56
27020;BME280;76819;49.098;11.826;2024-02-28T20:14:52;96608.03;;;10.61;56.55
27020;BME280;76819;49.098;11.826;2024-02-28T20:19:58;96599.28;;;10.60;57.04
27020;BME280;76819;49.098;11.826;2024-02-28T20:25:02;96603.31;;;10.56;57.21
27020;BME280;76819;49.098;11.826;2024-02-28T20:30:06;96597.03;;;10.57;57.48
27020;BME280;76819;49.098;11.826;2024-02-28T20:35:09;96591.75;;;10.57;57.33
27020;BME280;76819;49.098;11.826;2024-02-28T20:40:13;96601.72;;;10.55;57.71
27020;BME280;76819;49.098;11.826;2024-02-28T20:45:16;96602.72;;;10.54;57.31
27020;BME280;76819;49.098;11.826;2024-02-28T20:50:19;96600.88;;;10.48;57.44
27020;BME280;76819;49.098;11.826;2024-02-28T20:55:23;96592.56;;;10.51;57.53
27020;BME280;76819;49.098;11.826;2024-02-28T22:35:19;96570.13;;;6.69;68.00
27020;BME280;76819;49.098;11.826;2024-02-28T22:40:21;96569.44;;;7.79;65.59
27020;BME280;76819;49.098;11.826;2024-02-28T22:45:24;96562.28;;;8.53;63.25
27020;BME280;76819;49.098;11.826;2024-02-28T22:50:28;96563.38;;;9.01;61.35
27020;BME280;76819;49.098;11.826;2024-02-28T22:55:31;96549.69;;;9.33;60.57
27020;BME280;76819;49.098;11.826;2024-02-28T23:00:34;96557.13;;;9.57;59.82
27020;BME280;76819;49.098;11.826;2024-02-28T23:05:39;96547.94;;;9.75;59.08
27020;BME280;76819;49.098;11.826;2024-02-28T23:10:42;96547.75;;;9.83;58.02
27020;BME280;76819;49.098;11.826;2024-02-28T23:15:45;96543.34;;;9.90;57.72
27020;BME280;76819;49.098;11.826;2024-02-28T23:20:49;96547.41;;;9.92;57.29
27020;BME280;76819;49.098;11.826;2024-02-28T23:25:52;96544.59;;;9.94;56.75
27020;BME280;76819;49.098;11.826;2024-02-28T23:30:54;96528.38;;;9.97;56.78
27020;BME280;76819;49.098;11.826;2024-02-28T23:35:59;96534.25;;;9.99;56.07
27020;BME280;76819;49.098;11.826;2024-02-28T23:41:01;96550.03;;;9.92;55.97
27020;BME280;76819;49.098;11.826;2024-02-28T23:46:04;96543.13;;;9.85;55.53
27020;BME280;76819;49.098;11.826;2024-02-28T23:51:09;96541.13;;;9.93;55.23
27020;BME280;76819;49.098;11.826;2024-02-28T23:56:12;96539.94;;;9.96;55.20
